sensor_id;sensor_type;location;lat;lon;timestamp;pressure;altitude;pressure_sealevel;temperature;humidity
77897;BME280;67092;64.282;21.056;2023-03-30T00:00:27;100885.34;;;21.23;17.59
77897;BME280;67092;64.282;21.056;2023-03-30T00:02:53;100887.31;;;21.37;17.32
77897;BME280;67092;64.282;21.056;2023-03-30T00:05:19;100882.45;;;21.20;17.57
77897;BME280;67092;64.282;21.056;2023-03-30T00:07:44;100885.11;;;20.89;17.78
77897;BME280;67092;64.282;21.056;2023-03-30T00:10:11;100883.56;;;20.85;17.83
77897;BME280;67092;64.282;21.056;2023-03-30T00:12:36;100884.38;;;21.10;17.68
77897;BME280;67092;64.282;21.056;2023-03-30T00:15:01;100886.36;;;21.52;17.32
77897;BME280;67092;64.282;21.056;2023-03-30T00:17:27;100884.95;;;21.39;17.41
77897;BME280;67092;64.282;21.056;2023-03-30T00:19:52;100884.12;;;21.07;17.60
77897;BME280;67092;64.282;21.056;2023-03-30T00:22:18;100883.51;;;21.29;17.29
77897;BME280;67092;64.282;21.056;2023-03-30T00:24:44;100880.40;;;21.06;17.42
77897;BME280;67092;64.282;21.056;2023-03-30T00:27:09;100878.45;;;20.72;17.67
77897;BME280;67092;64.282;21.056;2023-03-30T00:29:35;100880.81;;;20.65;17.74
77897;BME280;67092;64.282;21.056;2023-03-30T00:32:00;100876.83;;;20.72;17.69
77897;BME280;67092;64.282;21.056;2023-03-30T00:34:26;100877.16;;;20.84;17.57
77897;BME280;67092;64.282;21.056;2023-03-30T00:36:52;100874.67;;;21.20;17.49
77897;BME280;67092;64.282;21.056;2023-03-30T00:39:18;100875.34;;;21.00;17.74
77897;BME280;67092;64.282;21.056;2023-03-30T00:41:44;100875.33;;;20.75;17.68
77897;BME280;67092;64.282;21.056;2023-03-30T00:46:34;100878.68;;;21.09;17.60
77897;BME280;67092;64.282;21.056;2023-03-30T00:49:03;100878.68;;;20.68;17.68
77897;BME280;67092;64.282;21.056;2023-03-30T00:51:27;100876.00;;;20.48;17.81
77897;BME280;67092;64.282;21.056;2023-03-30T00:53:54;100876.12;;;20.65;17.67
77897;BME280;67092;64.282;21.056;2023-03-30T00:56:22;100875.41;;;21.06;17.53
77897;BME280;67092;64.282;21.056;2023-03-30T00:58:43;100874.51;;;20.95;17.44
77897;BME280;67092;64.282;21.056;2023-03-30T01:01:10;100875.36;;;21.07;17.48
77897;BME280;67092;64.282;21.056;2023-03-30T01:03:38;100877.20;;;20.71;17.77
77897;BME280;67092;64.282;21.056;2023-03-30T01:06:02;100878.32;;;20.41;17.34
77897;BME280;67092;64.282;21.056;2023-03-30T01:08:26;100877.69;;;21.19;17.22
77897;BME280;67092;64.282;21.056;2023-03-30T01:10:51;100874.26;;;20.78;17.52
77897;BME280;67092;64.282;21.056;2023-03-30T01:13:17;100872.84;;;20.72;17.58
77897;BME280;67092;64.282;21.056;2023-03-30T01:15:54;100872.19;;;20.73;17.54
77897;BME280;67092;64.282;21.056;2023-03-30T01:18:17;100868.10;;;21.04;17.48
77897;BME280;67092;64.282;21.056;2023-03-30T01:20:51;100868.92;;;20.93;17.52
77897;BME280;67092;64.282;21.056;2023-03-30T01:23:16;100869.56;;;21.03;17.43
77897;BME280;67092;64.282;21.056;2023-03-30T01:25:38;100868.68;;;21.25;17.25
77897;BME280;67092;64.282;21.056;2023-03-30T01:28:06;100868.52;;;20.40;17.68
77897;BME280;67092;64.282;21.056;2023-03-30T01:30:30;100871.82;;;20.67;17.50
77897;BME280;67092;64.282;21.056;2023-03-30T01:32:54;100869.54;;;20.84;17.38
77897;BME280;67092;64.282;21.056;2023-03-30T01:37:54;100865.64;;;20.86;17.47
77897;BME280;67092;64.282;21.056;2023-03-30T01:40:03;100865.35;;;20.50;17.56
77897;BME280;67092;64.282;21.056;2023-03-30T01:42:31;100869.94;;;20.42;17.71
77897;BME280;67092;64.282;21.056;2023-03-30T01:44:54;100867.11;;;20.95;17.50
77897;BME280;67092;64.282;21.056;2023-03-30T01:47:20;100866.32;;;20.82;17.40
77897;BME280;67092;64.282;21.056;2023-03-30T01:49:46;100866.84;;;20.87;17.49
77897;BME280;67092;64.282;21.056;2023-03-30T01:52:14;100863.16;;;20.57;17.72
77897;BME280;67092;64.282;21.056;2023-03-30T01:54:36;100859.45;;;20.86;17.52
77897;BME280;67092;64.282;21.056;2023-03-30T01:57:02;100856.48;;;21.05;17.40
77897;BME280;67092;64.282;21.056;2023-03-30T01:59:25;100853.29;;;20.64;17.66
77897;BME280;67092;64.282;21.056;2023-03-30T02:01:51;100852.56;;;21.00;17.44
77897;BME280;67092;64.282;21.056;2023-03-30T02:04:16;100850.63;;;20.71;17.62
77897;BME280;67092;64.282;21.056;2023-03-30T02:06:44;100850.25;;;20.54;17.55
77897;BME280;67092;64.282;21.056;2023-03-30T02:09:08;100851.01;;;20.38;17.63
77897;BME280;67092;64.282;21.056;2023-03-30T02:11:33;100848.82;;;20.52;17.69
77897;BME280;67092;64.282;21.056;2023-03-30T02:13:59;100843.62;;;20.31;17.85
77897;BME280;67092;64.282;21.056;2023-03-30T02:16:27;100843.34;;;20.75;17.53
77897;BME280;67092;64.282;21.056;2023-03-30T02:18:48;100842.09;;;20.53;17.49
77897;BME280;67092;64.282;21.056;2023-03-30T02:21:14;100839.53;;;20.97;17.35
77897;BME280;67092;64.282;21.056;2023-03-30T02:23:42;100842.14;;;21.33;17.08
77897;BME280;67092;64.282;21.056;2023-03-30T02:26:05;100838.45;;;21.32;17.08
77897;BME280;67092;64.282;21.056;2023-03-30T02:28:31;100837.17;;;21.20;17.11
77897;BME280;67092;64.282;21.056;2023-03-30T02:30:57;100836.71;;;20.98;17.31
77897;BME280;67092;64.282;21.056;2023-03-30T02:33:27;100835.82;;;20.79;17.56
77897;BME280;67092;64.282;21.056;2023-03-30T02:35:59;100831.78;;;20.45;17.54
77897;BME280;67092;64.282;21.056;2023-03-30T02:38:25;100831.57;;;20.89;17.46
77897;BME280;67092;64.282;21.056;2023-03-30T02:40:46;100833.25;;;20.75;17.58
77897;BME280;67092;64.282;21.056;2023-03-30T02:45:39;100827.27;;;20.76;17.46
77897;BME280;67092;64.282;21.056;2023-03-30T02:48:13;100829.79;;;20.72;17.27
77897;BME280;67092;64.282;21.056;2023-03-30T02:50:29;100824.31;;;20.64;17.49
77897;BME280;67092;64.282;21.056;2023-03-30T02:52:53;100824.88;;;21.08;17.19
77897;BME280;67092;64.282;21.056;2023-03-30T02:55:18;100820.61;;;21.22;17.10
77897;BME280;67092;64.282;21.056;2023-03-30T02:57:47;100820.49;;;20.96;17.31
77897;BME280;67092;64.282;21.056;2023-03-30T03:00:10;100815.51;;;20.55;17.43
77897;BME280;67092;64.282;21.056;2023-03-30T03:02:34;100814.17;;;20.79;17.56
77897;BME280;67092;64.282;21.056;2023-03-30T03:04:56;100813.49;;;20.67;17.44
77897;BME280;67092;64.282;21.056;2023-03-30T03:07:21;100808.74;;;20.79;17.31
77897;BME280;67092;64.282;21.056;2023-03-30T03:09:47;100809.76;;;20.84;17.37
77897;BME280;67092;64.282;21.056;2023-03-30T03:12:13;100807.52;;;20.90;17.31
77897;BME280;67092;64.282;21.056;2023-03-30T03:14:38;100802.35;;;20.70;17.40
77897;BME280;67092;64.282;21.056;2023-03-30T03:17:04;100801.00;;;20.73;17.40
77897;BME280;67092;64.282;21.056;2023-03-30T03:19:29;100799.57;;;20.75;17.15
77897;BME280;67092;64.282;21.056;2023-03-30T03:21:55;100796.04;;;20.64;17.21
77897;BME280;67092;64.282;21.056;2023-03-30T03:24:21;100792.50;;;20.43;17.32
77897;BME280;67092;64.282;21.056;2023-03-30T03:26:46;100794.55;;;20.73;17.29
77897;BME280;67092;64.282;21.056;2023-03-30T03:29:12;100794.16;;;20.85;17.40
77897;BME280;67092;64.282;21.056;2023-03-30T03:31:37;100793.13;;;20.75;17.27
77897;BME280;67092;64.282;21.056;2023-03-30T03:34:03;100788.08;;;21.11;16.97
77897;BME280;67092;64.282;21.056;2023-03-30T03:36:29;100788.92;;;20.88;17.16
77897;BME280;67092;64.282;21.056;2023-03-30T03:38:55;100785.14;;;20.74;17.15
77897;BME280;67092;64.282;21.056;2023-03-30T03:41:20;100783.53;;;20.64;17.26
77897;BME280;67092;64.282;21.056;2023-03-30T03:43:46;100784.31;;;20.53;17.32
77897;BME280;67092;64.282;21.056;2023-03-30T03:46:13;100783.08;;;20.71;17.37
77897;BME280;67092;64.282;21.056;2023-03-30T03:48:38;100783.83;;;20.24;17.55
77897;BME280;67092;64.282;21.056;2023-03-30T03:51:02;100787.38;;;20.59;17.25
77897;BME280;67092;64.282;21.056;2023-03-30T03:53:28;100789.63;;;20.75;17.17
77897;BME280;67092;64.282;21.056;2023-03-30T03:55:54;100781.68;;;20.68;17.21
77897;BME280;67092;64.282;21.056;2023-03-30T03:58:20;100783.28;;;20.66;17.29
77897;BME280;67092;64.282;21.056;2023-03-30T04:00:45;100783.27;;;20.52;17.15
77897;BME280;67092;64.282;21.056;2023-03-30T04:03:11;100784.72;;;20.22;17.30
77897;BME280;67092;64.282;21.056;2023-03-30T04:05:37;100784.62;;;20.49;17.28
77897;BME280;67092;64.282;21.056;2023-03-30T04:08:02;100786.68;;;20.60;17.39
77897;BME280;67092;64.282;21.056;2023-03-30T04:10:28;100787.48;;;20.07;17.55
77897;BME280;67092;64.282;21.056;2023-03-30T04:12:54;100789.78;;;20.81;17.39
77897;BME280;67092;64.282;21.056;2023-03-30T04:15:19;100784.17;;;20.08;17.61
77897;BME280;67092;64.282;21.056;2023-03-30T04:17:44;100787.56;;;20.43;17.35
77897;BME280;67092;64.282;21.056;2023-03-30T04:20:11;100788.86;;;20.50;17.24
77897;BME280;67092;64.282;21.056;2023-03-30T04:22:36;100789.90;;;20.93;17.14
77897;BME280;67092;64.282;21.056;2023-03-30T04:25:02;100789.95;;;20.69;17.38
77897;BME280;67092;64.282;21.056;2023-03-30T04:27:27;100792.74;;;20.48;17.20
77897;BME280;67092;64.282;21.056;2023-03-30T04:29:53;100788.06;;;20.32;17.43
77897;BME280;67092;64.282;21.056;2023-03-30T04:32:18;100788.80;;;20.41;17.37
77897;BME280;67092;64.282;21.056;2023-03-30T04:34:44;100791.90;;;20.51;17.28
77897;BME280;67092;64.282;21.056;2023-03-30T04:37:10;100795.08;;;21.13;17.16
77897;BME280;67092;64.282;21.056;2023-03-30T04:39:35;100796.94;;;20.71;17.23
77897;BME280;67092;64.282;21.056;2023-03-30T04:42:01;100795.18;;;20.74;17.21
77897;BME280;67092;64.282;21.056;2023-03-30T04:44:26;100797.13;;;21.13;17.07
77897;BME280;67092;64.282;21.056;2023-03-30T04:46:52;100796.06;;;20.64;17.22
77897;BME280;67092;64.282;21.056;2023-03-30T04:49:18;100794.51;;;20.61;17.27
77897;BME280;67092;64.282;21.056;2023-03-30T04:51:43;100790.28;;;20.56;17.25
77897;BME280;67092;64.282;21.056;2023-03-30T04:54:09;100789.38;;;20.18;17.33
77897;BME280;67092;64.282;21.056;2023-03-30T04:56:34;100789.23;;;20.21;17.45
77897;BME280;67092;64.282;21.056;2023-03-30T04:59:00;100788.02;;;20.73;17.24
77897;BME280;67092;64.282;21.056;2023-03-30T05:01:26;100790.43;;;20.86;17.24
77897;BME280;67092;64.282;21.056;2023-03-30T05:03:51;100791.11;;;20.49;17.35
77897;BME280;67092;64.282;21.056;2023-03-30T05:06:17;100790.00;;;20.64;17.40
77897;BME280;67092;64.282;21.056;2023-03-30T05:08:43;100790.91;;;20.68;17.22
77897;BME280;67092;64.282;21.056;2023-03-30T05:11:08;100785.42;;;20.77;17.31
77897;BME280;67092;64.282;21.056;2023-03-30T05:13:34;100786.17;;;20.85;17.31
77897;BME280;67092;64.282;21.056;2023-03-30T05:16:00;100785.90;;;20.60;17.34
77897;BME280;67092;64.282;21.056;2023-03-30T05:18:25;100781.58;;;20.49;17.39
77897;BME280;67092;64.282;21.056;2023-03-30T05:20:54;100779.44;;;20.73;17.38
77897;BME280;67092;64.282;21.056;2023-03-30T05:23:16;100776.88;;;20.63;17.37
77897;BME280;67092;64.282;21.056;2023-03-30T05:25:42;100771.06;;;21.18;17.00
77897;BME280;67092;64.282;21.056;2023-03-30T05:28:08;100772.02;;;20.56;17.29
77897;BME280;67092;64.282;21.056;2023-03-30T05:30:33;100768.81;;;20.48;17.18
77897;BME280;67092;64.282;21.056;2023-03-30T05:32:59;100766.04;;;20.36;17.04
77897;BME280;67092;64.282;21.056;2023-03-30T05:35:25;100764.36;;;20.09;16.97
77897;BME280;67092;64.282;21.056;2023-03-30T05:37:50;100765.01;;;20.56;16.75
77897;BME280;67092;64.282;21.056;2023-03-30T05:40:16;100761.36;;;20.35;16.86
77897;BME280;67092;64.282;21.056;2023-03-30T05:42:41;100762.82;;;20.67;16.83
77897;BME280;67092;64.282;21.056;2023-03-30T05:45:08;100757.94;;;20.42;16.98
77897;BME280;67092;64.282;21.056;2023-03-30T05:47:33;100760.21;;;20.40;16.85
77897;BME280;67092;64.282;21.056;2023-03-30T05:49:58;100760.06;;;20.73;16.63
77897;BME280;67092;64.282;21.056;2023-03-30T05:52:24;100757.13;;;20.52;16.90
77897;BME280;67092;64.282;21.056;2023-03-30T05:54:50;100760.58;;;20.64;16.85
77897;BME280;67092;64.282;21.056;2023-03-30T05:57:15;100763.19;;;20.88;16.66
77897;BME280;67092;64.282;21.056;2023-03-30T05:59:41;100762.88;;;20.68;16.79
77897;BME280;67092;64.282;21.056;2023-03-30T06:02:08;100755.97;;;20.31;16.69
77897;BME280;67092;64.282;21.056;2023-03-30T06:04:32;100760.33;;;20.40;16.80
77897;BME280;67092;64.282;21.056;2023-03-30T06:06:58;100756.51;;;20.14;16.98
77897;BME280;67092;64.282;21.056;2023-03-30T06:09:24;100754.32;;;20.40;16.97
77897;BME280;67092;64.282;21.056;2023-03-30T06:11:49;100754.38;;;20.23;16.91
77897;BME280;67092;64.282;21.056;2023-03-30T06:14:15;100754.60;;;21.11;16.45
77897;BME280;67092;64.282;21.056;2023-03-30T06:16:40;100752.53;;;20.38;16.77
77897;BME280;67092;64.282;21.056;2023-03-30T06:19:06;100749.91;;;20.79;16.69
77897;BME280;67092;64.282;21.056;2023-03-30T06:21:32;100747.38;;;20.34;16.77
77897;BME280;67092;64.282;21.056;2023-03-30T06:23:57;100743.89;;;21.04;16.47
77897;BME280;67092;64.282;21.056;2023-03-30T06:26:23;100746.85;;;20.55;16.79
77897;BME280;67092;64.282;21.056;2023-03-30T06:28:49;100745.27;;;20.21;16.86
77897;BME280;67092;64.282;21.056;2023-03-30T06:31:14;100743.10;;;20.25;16.79
77897;BME280;67092;64.282;21.056;2023-03-30T06:33:40;100741.52;;;20.46;16.69
77897;BME280;67092;64.282;21.056;2023-03-30T06:36:10;100737.90;;;20.50;16.63
77897;BME280;67092;64.282;21.056;2023-03-30T06:38:31;100737.54;;;20.37;16.70
77897;BME280;67092;64.282;21.056;2023-03-30T06:40:57;100738.16;;;20.17;16.83
77897;BME280;67092;64.282;21.056;2023-03-30T06:43:24;100735.12;;;20.69;16.47
77897;BME280;67092;64.282;21.056;2023-03-30T06:45:49;100733.89;;;20.77;16.41
77897;BME280;67092;64.282;21.056;2023-03-30T06:48:14;100732.25;;;20.70;16.43
77897;BME280;67092;64.282;21.056;2023-03-30T06:50:39;100733.44;;;20.46;16.61
77897;BME280;67092;64.282;21.056;2023-03-30T06:53:05;100734.99;;;20.64;16.66
77897;BME280;67092;64.282;21.056;2023-03-30T06:55:31;100734.86;;;20.49;16.74
77897;BME280;67092;64.282;21.056;2023-03-30T06:57:56;100733.10;;;20.26;16.73
77897;BME280;67092;64.282;21.056;2023-03-30T07:00:22;100729.92;;;20.58;16.53
77897;BME280;67092;64.282;21.056;2023-03-30T07:02:47;100728.37;;;20.47;16.71
77897;BME280;67092;64.282;21.056;2023-03-30T07:05:13;100721.60;;;20.86;16.48
77897;BME280;67092;64.282;21.056;2023-03-30T07:07:39;100720.49;;;20.71;16.58
77897;BME280;67092;64.282;21.056;2023-03-30T07:10:05;100718.57;;;20.16;16.59
77897;BME280;67092;64.282;21.056;2023-03-30T07:12:30;100718.76;;;20.52;16.67
77897;BME280;67092;64.282;21.056;2023-03-30T07:14:56;100718.00;;;20.65;16.62
77897;BME280;67092;64.282;21.056;2023-03-30T07:17:21;100717.86;;;20.22;16.70
77897;BME280;67092;64.282;21.056;2023-03-30T07:19:47;100714.98;;;20.55;16.46
77897;BME280;67092;64.282;21.056;2023-03-30T07:22:12;100712.36;;;20.54;16.47
77897;BME280;67092;64.282;21.056;2023-03-30T07:24:38;100713.29;;;20.41;16.53
77897;BME280;67092;64.282;21.056;2023-03-30T07:27:04;100714.76;;;20.16;16.89
77897;BME280;67092;64.282;21.056;2023-03-30T07:29:29;100716.92;;;20.34;16.72
77897;BME280;67092;64.282;21.056;2023-03-30T07:31:55;100716.11;;;20.43;16.69
77897;BME280;67092;64.282;21.056;2023-03-30T07:34:20;100712.26;;;20.30;16.64
77897;BME280;67092;64.282;21.056;2023-03-30T07:36:46;100709.78;;;20.43;16.54
77897;BME280;67092;64.282;21.056;2023-03-30T07:39:12;100707.15;;;19.80;16.93
77897;BME280;67092;64.282;21.056;2023-03-30T07:41:37;100708.32;;;20.01;16.62
77897;BME280;67092;64.282;21.056;2023-03-30T07:44:03;100709.27;;;20.24;16.81
77897;BME280;67092;64.282;21.056;2023-03-30T07:46:29;100702.99;;;20.54;16.44
77897;BME280;67092;64.282;21.056;2023-03-30T07:48:54;100708.73;;;20.00;16.77
77897;BME280;67092;64.282;21.056;2023-03-30T07:51:20;100699.63;;;19.54;16.94
77897;BME280;67092;64.282;21.056;2023-03-30T07:53:47;100701.73;;;20.43;16.51
77897;BME280;67092;64.282;21.056;2023-03-30T07:56:11;100700.58;;;20.44;16.48
77897;BME280;67092;64.282;21.056;2023-03-30T07:58:37;100699.40;;;20.77;16.27
77897;BME280;67092;64.282;21.056;2023-03-30T08:01:02;100696.18;;;20.97;16.14
77897;BME280;67092;64.282;21.056;2023-03-30T08:03:28;100696.34;;;20.46;16.59
77897;BME280;67092;64.282;21.056;2023-03-30T08:05:54;100695.41;;;20.40;16.49
77897;BME280;67092;64.282;21.056;2023-03-30T08:08:20;100693.40;;;20.52;16.42
77897;BME280;67092;64.282;21.056;2023-03-30T08:10:45;100691.31;;;21.00;16.10
77897;BME280;67092;64.282;21.056;2023-03-30T08:13:10;100686.32;;;20.31;16.55
77897;BME280;67092;64.282;21.056;2023-03-30T08:15:36;100687.63;;;20.30;16.58
77897;BME280;67092;64.282;21.056;2023-03-30T08:18:02;100692.01;;;20.47;16.47
77897;BME280;67092;64.282;21.056;2023-03-30T08:20:27;100691.69;;;20.67;16.48
77897;BME280;67092;64.282;21.056;2023-03-30T08:22:53;100695.57;;;20.22;16.80
77897;BME280;67092;64.282;21.056;2023-03-30T08:25:19;100688.91;;;20.31;16.53
77897;BME280;67092;64.282;21.056;2023-03-30T08:27:44;100685.61;;;20.67;16.30
77897;BME280;67092;64.282;21.056;2023-03-30T08:30:11;100681.54;;;20.52;16.38
77897;BME280;67092;64.282;21.056;2023-03-30T08:32:35;100678.93;;;20.80;16.37
77897;BME280;67092;64.282;21.056;2023-03-30T08:35:01;100676.41;;;20.58;16.49
77897;BME280;67092;64.282;21.056;2023-03-30T08:37:27;100673.07;;;20.78;16.36
77897;BME280;67092;64.282;21.056;2023-03-30T08:39:53;100673.43;;;20.59;16.35
77897;BME280;67092;64.282;21.056;2023-03-30T08:42:38;100674.10;;;20.56;16.51
77897;BME280;67092;64.282;21.056;2023-03-30T08:44:46;100670.35;;;20.28;16.54
77897;BME280;67092;64.282;21.056;2023-03-30T08:47:12;100668.65;;;20.77;16.41
77897;BME280;67092;64.282;21.056;2023-03-30T08:49:40;100665.83;;;20.34;16.52
77897;BME280;67092;64.282;21.056;2023-03-30T08:52:02;100666.53;;;20.21;16.63
77897;BME280;67092;64.282;21.056;2023-03-30T08:54:27;100670.62;;;20.21;16.80
77897;BME280;67092;64.282;21.056;2023-03-30T08:56:59;100668.16;;;20.39;16.52
77897;BME280;67092;64.282;21.056;2023-03-30T08:59:23;100668.45;;;20.58;16.38
77897;BME280;67092;64.282;21.056;2023-03-30T09:01:47;100666.42;;;20.58;16.37
77897;BME280;67092;64.282;21.056;2023-03-30T09:04:17;100661.43;;;20.43;16.64
77897;BME280;67092;64.282;21.056;2023-03-30T09:06:44;100660.48;;;20.32;16.55
77897;BME280;67092;64.282;21.056;2023-03-30T09:09:00;100660.80;;;20.63;16.35
77897;BME280;67092;64.282;21.056;2023-03-30T09:11:30;100664.86;;;20.41;16.45
77897;BME280;67092;64.282;21.056;2023-03-30T09:13:52;100663.93;;;20.59;16.36
77897;BME280;67092;64.282;21.056;2023-03-30T09:16:20;100661.67;;;20.46;16.45
77897;BME280;67092;64.282;21.056;2023-03-30T09:18:43;100659.22;;;20.56;16.52
77897;BME280;67092;64.282;21.056;2023-03-30T09:21:10;100658.22;;;20.35;16.47
77897;BME280;67092;64.282;21.056;2023-03-30T09:23:34;100658.55;;;20.23;16.72
77897;BME280;67092;64.282;21.056;2023-03-30T09:26:09;100655.96;;;20.43;16.42
77897;BME280;67092;64.282;21.056;2023-03-30T09:28:31;100653.81;;;20.44;16.59
77897;BME280;67092;64.282;21.056;2023-03-30T09:30:53;100652.96;;;20.66;16.41
77897;BME280;67092;64.282;21.056;2023-03-30T09:33:26;100648.20;;;20.11;16.66
77897;BME280;67092;64.282;21.056;2023-03-30T09:35:44;100644.15;;;19.98;16.56
77897;BME280;67092;64.282;21.056;2023-03-30T09:38:10;100643.01;;;20.58;16.50
77897;BME280;67092;64.282;21.056;2023-03-30T09:40:44;100641.39;;;20.61;16.31
77897;BME280;67092;64.282;21.056;2023-03-30T09:43:07;100637.19;;;21.07;16.15
77897;BME280;67092;64.282;21.056;2023-03-30T09:45:27;100630.83;;;20.83;16.29
77897;BME280;67092;64.282;21.056;2023-03-30T09:47:50;100629.94;;;20.39;16.43
77897;BME280;67092;64.282;21.056;2023-03-30T09:50:18;100621.15;;;20.26;16.51
77897;BME280;67092;64.282;21.056;2023-03-30T09:55:22;100617.46;;;20.38;16.59
77897;BME280;67092;64.282;21.056;2023-03-30T09:57:33;100614.66;;;20.37;16.60
77897;BME280;67092;64.282;21.056;2023-03-30T09:59:59;100612.52;;;20.12;16.60
77897;BME280;67092;64.282;21.056;2023-03-30T10:02:26;100609.92;;;20.26;16.48
77897;BME280;67092;64.282;21.056;2023-03-30T10:04:57;100608.94;;;20.45;16.37
77897;BME280;67092;64.282;21.056;2023-03-30T10:07:21;100607.63;;;20.16;16.54
77897;BME280;67092;64.282;21.056;2023-03-30T10:09:42;100605.10;;;20.42;16.37
77897;BME280;67092;64.282;21.056;2023-03-30T10:12:06;100599.94;;;20.37;16.52
77897;BME280;67092;64.282;21.056;2023-03-30T10:14:34;100595.75;;;20.39;16.36
77897;BME280;67092;64.282;21.056;2023-03-30T10:16:58;100593.80;;;20.18;16.47
77897;BME280;67092;64.282;21.056;2023-03-30T10:19:23;100591.40;;;20.18;16.49
77897;BME280;67092;64.282;21.056;2023-03-30T10:21:53;100594.18;;;20.07;16.56
77897;BME280;67092;64.282;21.056;2023-03-30T10:24:20;100587.92;;;20.85;16.23
77897;BME280;67092;64.282;21.056;2023-03-30T10:26:44;100585.87;;;20.49;16.31
77897;BME280;67092;64.282;21.056;2023-03-30T10:29:06;100586.44;;;19.92;16.85
77897;BME280;67092;64.282;21.056;2023-03-30T10:31:34;100587.08;;;20.51;16.34
77897;BME280;67092;64.282;21.056;2023-03-30T10:33:59;100587.32;;;20.51;16.45
77897;BME280;67092;64.282;21.056;2023-03-30T10:36:28;100580.37;;;20.53;16.49
77897;BME280;67092;64.282;21.056;2023-03-30T10:38:48;100578.27;;;20.78;16.32
77897;BME280;67092;64.282;21.056;2023-03-30T10:41:18;100571.99;;;20.14;16.58
77897;BME280;67092;64.282;21.056;2023-03-30T10:43:40;100570.21;;;20.08;16.74
77897;BME280;67092;64.282;21.056;2023-03-30T10:46:07;100566.66;;;20.71;16.32
77897;BME280;67092;64.282;21.056;2023-03-30T10:48:39;100568.79;;;20.32;16.44
77897;BME280;67092;64.282;21.056;2023-03-30T10:51:02;100563.30;;;20.49;16.46
77897;BME280;67092;64.282;21.056;2023-03-30T10:53:32;100563.37;;;20.53;16.29
77897;BME280;67092;64.282;21.056;2023-03-30T10:55:52;100562.11;;;20.46;16.46
77897;BME280;67092;64.282;21.056;2023-03-30T10:58:21;100564.70;;;20.12;16.56
77897;BME280;67092;64.282;21.056;2023-03-30T11:00:49;100563.25;;;20.79;16.25
77897;BME280;67092;64.282;21.056;2023-03-30T11:03:09;100563.10;;;20.54;16.25
77897;BME280;67092;64.282;21.056;2023-03-30T11:05:32;100563.54;;;20.67;16.36
77897;BME280;67092;64.282;21.056;2023-03-30T11:08:00;100555.96;;;20.42;16.37
77897;BME280;67092;64.282;21.056;2023-03-30T11:10:26;100557.09;;;20.69;16.35
77897;BME280;67092;64.282;21.056;2023-03-30T11:12:53;100553.29;;;20.49;16.48
77897;BME280;67092;64.282;21.056;2023-03-30T11:15:16;100551.17;;;20.55;16.44
77897;BME280;67092;64.282;21.056;2023-03-30T11:17:45;100551.79;;;20.50;16.33
77897;BME280;67092;64.282;21.056;2023-03-30T11:22:35;100542.68;;;20.85;16.25
77897;BME280;67092;64.282;21.056;2023-03-30T11:24:55;100542.26;;;20.65;16.39
77897;BME280;67092;64.282;21.056;2023-03-30T11:27:25;100538.78;;;20.25;16.46
77897;BME280;67092;64.282;21.056;2023-03-30T11:29:48;100539.23;;;20.44;16.53
77897;BME280;67092;64.282;21.056;2023-03-30T11:32:23;100532.41;;;19.89;16.73
77897;BME280;67092;64.282;21.056;2023-03-30T11:34:47;100530.07;;;20.30;16.63
77897;BME280;67092;64.282;21.056;2023-03-30T11:37:10;100528.16;;;20.11;16.77
77897;BME280;67092;64.282;21.056;2023-03-30T11:39:31;100528.43;;;20.35;16.45
77897;BME280;67092;64.282;21.056;2023-03-30T11:42:01;100526.97;;;20.49;16.54
77897;BME280;67092;64.282;21.056;2023-03-30T11:44:20;100527.45;;;20.40;16.61
77897;BME280;67092;64.282;21.056;2023-03-30T11:46:50;100527.61;;;19.90;16.77
77897;BME280;67092;64.282;21.056;2023-03-30T11:51:45;100526.06;;;20.60;16.47
77897;BME280;67092;64.282;21.056;2023-03-30T11:56:34;100517.36;;;20.31;16.49
77897;BME280;67092;64.282;21.056;2023-03-30T11:59:01;100514.04;;;20.24;16.70
77897;BME280;67092;64.282;21.056;2023-03-30T12:01:28;100512.86;;;20.88;16.27
77897;BME280;67092;64.282;21.056;2023-03-30T12:03:46;100515.61;;;20.46;16.53
77897;BME280;67092;64.282;21.056;2023-03-30T12:06:25;100511.13;;;20.43;16.41
77897;BME280;67092;64.282;21.056;2023-03-30T12:08:49;100510.60;;;20.33;16.59
77897;BME280;67092;64.282;21.056;2023-03-30T12:11:10;100496.87;;;20.77;16.31
77897;BME280;67092;64.282;21.056;2023-03-30T12:13:28;100495.05;;;20.67;16.37
77897;BME280;67092;64.282;21.056;2023-03-30T12:15:56;100495.25;;;20.04;16.63
77897;BME280;67092;64.282;21.056;2023-03-30T12:18:28;100488.32;;;20.65;16.40
77897;BME280;67092;64.282;21.056;2023-03-30T12:20:49;100486.67;;;20.00;16.82
77897;BME280;67092;64.282;21.056;2023-03-30T12:23:20;100486.02;;;20.36;16.60
77897;BME280;67092;64.282;21.056;2023-03-30T12:25:47;100486.49;;;19.70;16.87
77897;BME280;67092;64.282;21.056;2023-03-30T12:28:09;100486.26;;;20.41;16.55
77897;BME280;67092;64.282;21.056;2023-03-30T12:30:29;100481.63;;;20.14;16.74
77897;BME280;67092;64.282;21.056;2023-03-30T12:32:58;100476.57;;;20.25;16.51
77897;BME280;67092;64.282;21.056;2023-03-30T12:37:46;100479.89;;;20.24;16.67
77897;BME280;67092;64.282;21.056;2023-03-30T12:40:14;100474.14;;;20.03;16.44
77897;BME280;67092;64.282;21.056;2023-03-30T12:42:36;100482.42;;;19.87;16.68
77897;BME280;67092;64.282;21.056;2023-03-30T12:45:16;100474.80;;;20.48;16.47
77897;BME280;67092;64.282;21.056;2023-03-30T12:47:37;100476.13;;;20.25;16.63
77897;BME280;67092;64.282;21.056;2023-03-30T12:50:03;100467.40;;;20.37;16.53